sensor_id;sensor_type;location;lat;lon;timestamp;temperature;humidity
14409;DHT22;7289;50.706;4.992;2022-07-29T00:00:49;17.80;99.90
14409;DHT22;7289;50.706;4.992;2022-07-29T00:03:18;17.70;99.90
14409;DHT22;7289;50.706;4.992;2022-07-29T00:05:46;17.70;99.90
14409;DHT22;7289;50.706;4.992;2022-07-29T00:08:14;17.60;99.90
14409;DHT22;7289;50.706;4.992;2022-07-29T00:10:44;17.60;99.90
14409;DHT22;7289;50.706;4.992;2022-07-29T00:13:12;17.60;99.90
14409;DHT22;7289;50.706;4.992;2022-07-29T00:15:41;17.60;99.90
14409;DHT22;7289;50.706;4.992;2022-07-29T00:18:09;17.50;99.90
14409;DHT22;7289;50.706;4.992;2022-07-29T00:20:37;17.50;99.90
14409;DHT22;7289;50.706;4.992;2022-07-29T00:23:06;17.50;99.90
14409;DHT22;7289;50.706;4.992;2022-07-29T00:25:39;17.40;99.90
14409;DHT22;7289;50.706;4.992;2022-07-29T00:28:09;17.40;99.90
14409;DHT22;7289;50.706;4.992;2022-07-29T00:30:37;17.40;99.90
14409;DHT22;7289;50.706;4.992;2022-07-29T00:33:06;17.50;99.90
14409;DHT22;7289;50.706;4.992;2022-07-29T00:35:35;17.50;99.90
14409;DHT22;7289;50.706;4.992;2022-07-29T00:38:13;17.60;99.90
14409;DHT22;7289;50.706;4.992;2022-07-29T00:40:42;17.60;99.90
14409;DHT22;7289;50.706;4.992;2022-07-29T00:43:13;17.60;99.90
14409;DHT22;7289;50.706;4.992;2022-07-29T00:45:42;17.60;99.90
14409;DHT22;7289;50.706;4.992;2022-07-29T00:48:11;17.60;99.90
14409;DHT22;7289;50.706;4.992;2022-07-29T00:50:39;17.70;99.90
14409;DHT22;7289;50.706;4.992;2022-07-29T00:53:08;17.70;99.90
14409;DHT22;7289;50.706;4.992;2022-07-29T00:55:37;17.70;99.90
14409;DHT22;7289;50.706;4.992;2022-07-29T00:58:06;17.80;99.90
14409;DHT22;7289;50.706;4.992;2022-07-29T01:00:36;17.80;99.90
14409;DHT22;7289;50.706;4.992;2022-07-29T01:03:04;17.80;99.90
14409;DHT22;7289;50.706;4.992;2022-07-29T01:05:33;17.70;99.90
14409;DHT22;7289;50.706;4.992;2022-07-29T01:08:17;17.70;99.90
14409;DHT22;7289;50.706;4.992;2022-07-29T01:10:47;17.70;99.90
14409;DHT22;7289;50.706;4.992;2022-07-29T01:13:16;17.60;99.90
14409;DHT22;7289;50.706;4.992;2022-07-29T01:15:51;17.60;99.90
14409;DHT22;7289;50.706;4.992;2022-07-29T01:18:23;17.60;99.90
14409;DHT22;7289;50.706;4.992;2022-07-29T01:21:07;17.60;99.90
14409;DHT22;7289;50.706;4.992;2022-07-29T01:24:02;17.60;99.90
14409;DHT22;7289;50.706;4.992;2022-07-29T01:26:52;17.50;99.90
14409;DHT22;7289;50.706;4.992;2022-07-29T01:29:27;17.40;99.90
14409;DHT22;7289;50.706;4.992;2022-07-29T01:32:07;17.40;99.90
14409;DHT22;7289;50.706;4.992;2022-07-29T01:34:58;17.30;99.90
14409;DHT22;7289;50.706;4.992;2022-07-29T01:37:32;17.30;99.90
14409;DHT22;7289;50.706;4.992;2022-07-29T01:40:04;17.30;99.90
14409;DHT22;7289;50.706;4.992;2022-07-29T01:42:36;17.30;99.90
14409;DHT22;7289;50.706;4.992;2022-07-29T01:45:12;17.20;99.90
14409;DHT22;7289;50.706;4.992;2022-07-29T01:47:48;17.30;99.90
14409;DHT22;7289;50.706;4.992;2022-07-29T01:50:18;17.20;99.90
14409;DHT22;7289;50.706;4.992;2022-07-29T01:52:52;17.30;99.90
14409;DHT22;7289;50.706;4.992;2022-07-29T01:55:27;17.30;99.90
14409;DHT22;7289;50.706;4.992;2022-07-29T01:57:57;17.40;99.90
14409;DHT22;7289;50.706;4.992;2022-07-29T02:00:29;17.40;99.90
14409;DHT22;7289;50.706;4.992;2022-07-29T02:03:02;17.40;99.90
14409;DHT22;7289;50.706;4.992;2022-07-29T02:05:33;17.40;99.90
14409;DHT22;7289;50.706;4.992;2022-07-29T02:08:02;17.40;99.90
14409;DHT22;7289;50.706;4.992;2022-07-29T02:10:33;17.40;99.90
14409;DHT22;7289;50.706;4.992;2022-07-29T02:13:03;17.30;99.90
14409;DHT22;7289;50.706;4.992;2022-07-29T02:15:34;17.30;99.90
14409;DHT22;7289;50.706;4.992;2022-07-29T02:18:06;17.30;99.90
14409;DHT22;7289;50.706;4.992;2022-07-29T02:20:36;17.30;99.90
14409;DHT22;7289;50.706;4.992;2022-07-29T02:23:07;17.30;99.90
14409;DHT22;7289;50.706;4.992;2022-07-29T02:25:38;17.20;99.90
14409;DHT22;7289;50.706;4.992;2022-07-29T02:28:07;17.10;99.90
14409;DHT22;7289;50.706;4.992;2022-07-29T02:30:40;17.10;99.90
14409;DHT22;7289;50.706;4.992;2022-07-29T02:33:13;17.10;99.90
14409;DHT22;7289;50.706;4.992;2022-07-29T02:35:47;17.10;99.90
14409;DHT22;7289;50.706;4.992;2022-07-29T02:38:17;16.90;99.90
14409;DHT22;7289;50.706;4.992;2022-07-29T02:41:07;16.90;99.90
14409;DHT22;7289;50.706;4.992;2022-07-29T02:43:38;16.90;99.90
14409;DHT22;7289;50.706;4.992;2022-07-29T02:46:14;16.90;99.90
14409;DHT22;7289;50.706;4.992;2022-07-29T02:48:58;16.80;99.90
14409;DHT22;7289;50.706;4.992;2022-07-29T02:51:32;16.70;99.90
14409;DHT22;7289;50.706;4.992;2022-07-29T02:54:17;16.80;99.90
14409;DHT22;7289;50.706;4.992;2022-07-29T02:56:48;16.80;99.90
14409;DHT22;7289;50.706;4.992;2022-07-29T02:59:23;16.80;99.90
14409;DHT22;7289;50.706;4.992;2022-07-29T03:01:55;16.80;99.90
14409;DHT22;7289;50.706;4.992;2022-07-29T03:04:24;16.70;99.90
14409;DHT22;7289;50.706;4.992;2022-07-29T03:06:58;16.60;99.90
14409;DHT22;7289;50.706;4.992;2022-07-29T03:09:27;16.60;99.90
14409;DHT22;7289;50.706;4.992;2022-07-29T03:11:57;16.60;99.90
14409;DHT22;7289;50.706;4.992;2022-07-29T03:14:26;16.60;99.90
14409;DHT22;7289;50.706;4.992;2022-07-29T03:16:56;16.60;99.90
14409;DHT22;7289;50.706;4.992;2022-07-29T03:19:26;16.60;99.90
14409;DHT22;7289;50.706;4.992;2022-07-29T03:21:56;16.70;99.90
14409;DHT22;7289;50.706;4.992;2022-07-29T03:24:29;16.70;99.90
14409;DHT22;7289;50.706;4.992;2022-07-29T03:26:58;16.80;99.90
14409;DHT22;7289;50.706;4.992;2022-07-29T03:29:27;16.80;99.90
14409;DHT22;7289;50.706;4.992;2022-07-29T03:32:04;16.80;99.90
14409;DHT22;7289;50.706;4.992;2022-07-29T03:34:35;16.80;99.90
14409;DHT22;7289;50.706;4.992;2022-07-29T03:37:05;16.90;99.90
14409;DHT22;7289;50.706;4.992;2022-07-29T03:39:38;16.80;99.90
14409;DHT22;7289;50.706;4.992;2022-07-29T03:42:10;16.70;99.90
14409;DHT22;7289;50.706;4.992;2022-07-29T03:44:41;16.70;99.90
14409;DHT22;7289;50.706;4.992;2022-07-29T03:47:13;16.70;99.90
14409;DHT22;7289;50.706;4.992;2022-07-29T03:49:42;16.70;99.90
14409;DHT22;7289;50.706;4.992;2022-07-29T03:52:12;16.60;99.90
14409;DHT22;7289;50.706;4.992;2022-07-29T03:54:41;16.50;99.90
14409;DHT22;7289;50.706;4.992;2022-07-29T03:57:10;16.40;99.90
14409;DHT22;7289;50.706;4.992;2022-07-29T03:59:40;16.40;99.90
14409;DHT22;7289;50.706;4.992;2022-07-29T04:02:12;16.30;99.90
14409;DHT22;7289;50.706;4.992;2022-07-29T04:04:47;16.20;99.90
14409;DHT22;7289;50.706;4.992;2022-07-29T04:07:15;16.10;99.90
14409;DHT22;7289;50.706;4.992;2022-07-29T04:09:44;16.10;99.90
14409;DHT22;7289;50.706;4.992;2022-07-29T04:12:12;16.00;99.90
14409;DHT22;7289;50.706;4.992;2022-07-29T04:14:41;16.00;99.90
14409;DHT22;7289;50.706;4.992;2022-07-29T04:17:09;15.90;99.90
14409;DHT22;7289;50.706;4.992;2022-07-29T04:19:39;15.90;99.90
14409;DHT22;7289;50.706;4.992;2022-07-29T04:22:07;15.80;99.90
14409;DHT22;7289;50.706;4.992;2022-07-29T04:24:35;15.80;99.90
14409;DHT22;7289;50.706;4.992;2022-07-29T04:27:04;15.70;99.90
14409;DHT22;7289;50.706;4.992;2022-07-29T04:29:32;15.70;99.90
14409;DHT22;7289;50.706;4.992;2022-07-29T04:32:00;15.60;99.90
14409;DHT22;7289;50.706;4.992;2022-07-29T04:34:29;15.60;99.90
14409;DHT22;7289;50.706;4.992;2022-07-29T04:36:58;15.50;99.90
14409;DHT22;7289;50.706;4.992;2022-07-29T04:39:27;15.50;99.90
14409;DHT22;7289;50.706;4.992;2022-07-29T04:41:56;15.40;99.90
14409;DHT22;7289;50.706;4.992;2022-07-29T04:44:26;15.50;99.90
14409;DHT22;7289;50.706;4.992;2022-07-29T04:46:56;15.50;99.90
14409;DHT22;7289;50.706;4.992;2022-07-29T04:49:24;15.50;99.90
14409;DHT22;7289;50.706;4.992;2022-07-29T04:51:53;15.40;99.90
14409;DHT22;7289;50.706;4.992;2022-07-29T04:54:23;15.40;99.90
14409;DHT22;7289;50.706;4.992;2022-07-29T04:56:52;15.50;99.90
14409;DHT22;7289;50.706;4.992;2022-07-29T04:59:20;15.60;99.90
14409;DHT22;7289;50.706;4.992;2022-07-29T05:01:48;15.60;99.90
14409;DHT22;7289;50.706;4.992;2022-07-29T05:04:17;15.60;99.90
14409;DHT22;7289;50.706;4.992;2022-07-29T05:06:46;15.60;99.90
14409;DHT22;7289;50.706;4.992;2022-07-29T05:09:15;15.60;99.90
14409;DHT22;7289;50.706;4.992;2022-07-29T05:11:44;15.70;99.90
14409;DHT22;7289;50.706;4.992;2022-07-29T05:14:13;15.70;99.90
14409;DHT22;7289;50.706;4.992;2022-07-29T05:16:42;15.80;99.90
14409;DHT22;7289;50.706;4.992;2022-07-29T05:19:10;15.80;99.90
14409;DHT22;7289;50.706;4.992;2022-07-29T05:21:41;15.90;99.90
14409;DHT22;7289;50.706;4.992;2022-07-29T05:24:09;16.00;99.90
14409;DHT22;7289;50.706;4.992;2022-07-29T05:26:39;16.10;99.90
14409;DHT22;7289;50.706;4.992;2022-07-29T05:29:09;16.20;99.90
14409;DHT22;7289;50.706;4.992;2022-07-29T05:31:58;16.20;99.90
14409;DHT22;7289;50.706;4.992;2022-07-29T05:34:26;16.40;99.90
14409;DHT22;7289;50.706;4.992;2022-07-29T05:36:54;16.40;99.90
14409;DHT22;7289;50.706;4.992;2022-07-29T05:39:23;16.70;99.90
14409;DHT22;7289;50.706;4.992;2022-07-29T05:42:11;17.00;99.90
14409;DHT22;7289;50.706;4.992;2022-07-29T05:44:41;17.50;99.90
14409;DHT22;7289;50.706;4.992;2022-07-29T05:47:10;17.90;99.90
14409;DHT22;7289;50.706;4.992;2022-07-29T05:49:38;18.30;99.90
14409;DHT22;7289;50.706;4.992;2022-07-29T05:52:06;18.70;99.90
14409;DHT22;7289;50.706;4.992;2022-07-29T05:54:35;18.70;99.90
14409;DHT22;7289;50.706;4.992;2022-07-29T05:57:04;18.80;99.90
14409;DHT22;7289;50.706;4.992;2022-07-29T05:59:35;19.00;99.90
14409;DHT22;7289;50.706;4.992;2022-07-29T06:02:05;18.80;99.90
14409;DHT22;7289;50.706;4.992;2022-07-29T06:04:33;18.90;99.90
14409;DHT22;7289;50.706;4.992;2022-07-29T06:07:02;19.00;99.90
14409;DHT22;7289;50.706;4.992;2022-07-29T06:09:30;19.10;99.90
14409;DHT22;7289;50.706;4.992;2022-07-29T06:12:02;19.20;99.90
14409;DHT22;7289;50.706;4.992;2022-07-29T06:14:31;19.20;99.60
14409;DHT22;7289;50.706;4.992;2022-07-29T06:16:59;19.00;99.70
14409;DHT22;7289;50.706;4.992;2022-07-29T06:19:29;18.80;99.90
14409;DHT22;7289;50.706;4.992;2022-07-29T06:21:57;18.90;99.90
14409;DHT22;7289;50.706;4.992;2022-07-29T06:24:25;18.90;99.90
14409;DHT22;7289;50.706;4.992;2022-07-29T06:26:54;18.80;99.90
14409;DHT22;7289;50.706;4.992;2022-07-29T06:29:22;18.90;99.90
14409;DHT22;7289;50.706;4.992;2022-07-29T06:31:51;19.00;99.90
14409;DHT22;7289;50.706;4.992;2022-07-29T06:34:19;19.20;99.90
14409;DHT22;7289;50.706;4.992;2022-07-29T06:36:49;19.30;99.30
14409;DHT22;7289;50.706;4.992;2022-07-29T06:39:20;19.20;99.40
14409;DHT22;7289;50.706;4.992;2022-07-29T06:41:49;19.30;99.30
14409;DHT22;7289;50.706;4.992;2022-07-29T06:44:24;19.30;99.10
14409;DHT22;7289;50.706;4.992;2022-07-29T06:46:52;19.50;99.10
14409;DHT22;7289;50.706;4.992;2022-07-29T06:49:21;19.60;99.00
14409;DHT22;7289;50.706;4.992;2022-07-29T06:51:52;19.70;99.10
14409;DHT22;7289;50.706;4.992;2022-07-29T06:54:21;19.60;98.40
14409;DHT22;7289;50.706;4.992;2022-07-29T06:56:49;19.60;99.10
14409;DHT22;7289;50.706;4.992;2022-07-29T06:59:18;19.60;99.40
14409;DHT22;7289;50.706;4.992;2022-07-29T07:01:56;19.80;99.30
14409;DHT22;7289;50.706;4.992;2022-07-29T07:04:25;19.70;98.90
14409;DHT22;7289;50.706;4.992;2022-07-29T07:06:54;19.90;98.20
14409;DHT22;7289;50.706;4.992;2022-07-29T07:09:23;19.90;98.60
14409;DHT22;7289;50.706;4.992;2022-07-29T07:12:06;20.00;98.20
14409;DHT22;7289;50.706;4.992;2022-07-29T07:14:35;20.00;98.00
14409;DHT22;7289;50.706;4.992;2022-07-29T07:17:03;20.20;97.90
14409;DHT22;7289;50.706;4.992;2022-07-29T07:19:34;20.40;97.80
14409;DHT22;7289;50.706;4.992;2022-07-29T07:22:03;20.50;97.60
14409;DHT22;7289;50.706;4.992;2022-07-29T07:24:32;20.70;97.20
14409;DHT22;7289;50.706;4.992;2022-07-29T07:27:00;20.70;97.20
14409;DHT22;7289;50.706;4.992;2022-07-29T07:29:28;20.90;96.90
14409;DHT22;7289;50.706;4.992;2022-07-29T07:31:57;21.10;96.20
14409;DHT22;7289;50.706;4.992;2022-07-29T07:34:27;21.10;96.00
14409;DHT22;7289;50.706;4.992;2022-07-29T07:36:57;21.10;96.20
14409;DHT22;7289;50.706;4.992;2022-07-29T07:39:26;21.10;95.80
14409;DHT22;7289;50.706;4.992;2022-07-29T07:41:55;21.00;95.70
14409;DHT22;7289;50.706;4.992;2022-07-29T07:44:23;21.00;95.00
14409;DHT22;7289;50.706;4.992;2022-07-29T07:46:51;21.00;95.50
14409;DHT22;7289;50.706;4.992;2022-07-29T07:49:20;21.10;95.50
14409;DHT22;7289;50.706;4.992;2022-07-29T07:51:49;21.10;95.30
14409;DHT22;7289;50.706;4.992;2022-07-29T07:54:17;21.30;94.60
14409;DHT22;7289;50.706;4.992;2022-07-29T07:56:48;21.20;94.80
14409;DHT22;7289;50.706;4.992;2022-07-29T07:59:19;21.30;94.50
14409;DHT22;7289;50.706;4.992;2022-07-29T08:01:47;21.40;94.90
14409;DHT22;7289;50.706;4.992;2022-07-29T08:04:23;21.40;95.10
14409;DHT22;7289;50.706;4.992;2022-07-29T08:06:55;21.30;94.80
14409;DHT22;7289;50.706;4.992;2022-07-29T08:09:25;21.30;94.30
14409;DHT22;7289;50.706;4.992;2022-07-29T08:11:58;21.40;94.20
14409;DHT22;7289;50.706;4.992;2022-07-29T08:14:26;21.50;94.10
14409;DHT22;7289;50.706;4.992;2022-07-29T08:16:54;21.60;93.90
14409;DHT22;7289;50.706;4.992;2022-07-29T08:19:23;21.70;93.40
14409;DHT22;7289;50.706;4.992;2022-07-29T08:21:51;21.70;93.90
14409;DHT22;7289;50.706;4.992;2022-07-29T08:24:21;21.80;93.40
14409;DHT22;7289;50.706;4.992;2022-07-29T08:27:09;22.00;93.50
14409;DHT22;7289;50.706;4.992;2022-07-29T08:29:57;22.20;93.40
14409;DHT22;7289;50.706;4.992;2022-07-29T08:32:25;22.20;92.90
14409;DHT22;7289;50.706;4.992;2022-07-29T08:35:15;22.30;92.10
14409;DHT22;7289;50.706;4.992;2022-07-29T08:37:43;22.30;92.70
14409;DHT22;7289;50.706;4.992;2022-07-29T08:40:12;22.20;92.30
14409;DHT22;7289;50.706;4.992;2022-07-29T08:42:42;22.40;92.80
14409;DHT22;7289;50.706;4.992;2022-07-29T08:45:11;22.50;92.30
14409;DHT22;7289;50.706;4.992;2022-07-29T08:47:39;22.40;92.00
14409;DHT22;7289;50.706;4.992;2022-07-29T08:50:08;22.40;91.80
14409;DHT22;7289;50.706;4.992;2022-07-29T08:52:40;22.20;91.90
14409;DHT22;7289;50.706;4.992;2022-07-29T08:55:09;22.40;92.70
14409;DHT22;7289;50.706;4.992;2022-07-29T08:57:39;22.50;92.30
14409;DHT22;7289;50.706;4.992;2022-07-29T09:00:22;22.50;92.90
14409;DHT22;7289;50.706;4.992;2022-07-29T09:02:56;22.70;91.90
14409;DHT22;7289;50.706;4.992;2022-07-29T09:05:26;22.90;92.30
14409;DHT22;7289;50.706;4.992;2022-07-29T09:07:55;23.00;91.80
14409;DHT22;7289;50.706;4.992;2022-07-29T09:10:24;23.10;90.60
14409;DHT22;7289;50.706;4.992;2022-07-29T09:12:54;23.20;90.90
14409;DHT22;7289;50.706;4.992;2022-07-29T09:15:24;23.20;91.00
14409;DHT22;7289;50.706;4.992;2022-07-29T09:17:53;23.20;90.80
14409;DHT22;7289;50.706;4.992;2022-07-29T09:20:22;23.20;91.70
14409;DHT22;7289;50.706;4.992;2022-07-29T09:22:51;23.40;91.70
14409;DHT22;7289;50.706;4.992;2022-07-29T09:25:33;23.50;90.70
14409;DHT22;7289;50.706;4.992;2022-07-29T09:28:08;23.50;87.50
14409;DHT22;7289;50.706;4.992;2022-07-29T09:30:50;23.40;88.80
14409;DHT22;7289;50.706;4.992;2022-07-29T09:33:19;23.30;90.00
14409;DHT22;7289;50.706;4.992;2022-07-29T09:35:59;23.30;90.10
14409;DHT22;7289;50.706;4.992;2022-07-29T09:38:28;23.40;89.70
14409;DHT22;7289;50.706;4.992;2022-07-29T09:40:57;23.50;90.40
14409;DHT22;7289;50.706;4.992;2022-07-29T09:43:32;23.70;90.50
14409;DHT22;7289;50.706;4.992;2022-07-29T09:46:11;23.90;88.50
14409;DHT22;7289;50.706;4.992;2022-07-29T09:48:40;23.90;90.20
14409;DHT22;7289;50.706;4.992;2022-07-29T09:51:17;23.80;89.10
14409;DHT22;7289;50.706;4.992;2022-07-29T09:53:49;23.80;89.30
14409;DHT22;7289;50.706;4.992;2022-07-29T09:56:19;23.80;89.30
14409;DHT22;7289;50.706;4.992;2022-07-29T09:58:48;23.90;88.80
14409;DHT22;7289;50.706;4.992;2022-07-29T10:01:34;23.90;88.20
14409;DHT22;7289;50.706;4.992;2022-07-29T10:04:03;23.80;88.60
14409;DHT22;7289;50.706;4.992;2022-07-29T10:06:31;23.80;87.50
14409;DHT22;7289;50.706;4.992;2022-07-29T10:09:07;23.90;88.70
14409;DHT22;7289;50.706;4.992;2022-07-29T10:11:36;24.10;88.80
14409;DHT22;7289;50.706;4.992;2022-07-29T10:14:22;24.20;86.30
14409;DHT22;7289;50.706;4.992;2022-07-29T10:16:53;24.20;87.30
14409;DHT22;7289;50.706;4.992;2022-07-29T10:19:22;24.40;86.20
14409;DHT22;7289;50.706;4.992;2022-07-29T10:21:50;24.40;85.90
14409;DHT22;7289;50.706;4.992;2022-07-29T10:24:25;24.30;84.70
14409;DHT22;7289;50.706;4.992;2022-07-29T10:26:54;24.40;84.30
14409;DHT22;7289;50.706;4.992;2022-07-29T10:29:24;24.40;84.40
14409;DHT22;7289;50.706;4.992;2022-07-29T10:32:05;24.50;84.30
14409;DHT22;7289;50.706;4.992;2022-07-29T10:34:48;24.40;81.60
14409;DHT22;7289;50.706;4.992;2022-07-29T10:37:25;24.40;83.70
14409;DHT22;7289;50.706;4.992;2022-07-29T10:40:09;24.50;86.10
14409;DHT22;7289;50.706;4.992;2022-07-29T10:42:55;24.70;85.10
14409;DHT22;7289;50.706;4.992;2022-07-29T10:45:27;24.90;82.20
14409;DHT22;7289;50.706;4.992;2022-07-29T10:48:04;24.80;82.20
14409;DHT22;7289;50.706;4.992;2022-07-29T10:50:52;24.80;82.60
14409;DHT22;7289;50.706;4.992;2022-07-29T10:53:21;24.70;81.70
14409;DHT22;7289;50.706;4.992;2022-07-29T10:55:51;24.70;83.50
14409;DHT22;7289;50.706;4.992;2022-07-29T10:58:21;24.90;84.30
14409;DHT22;7289;50.706;4.992;2022-07-29T11:00:51;24.90;81.20
14409;DHT22;7289;50.706;4.992;2022-07-29T11:03:44;25.10;80.00
14409;DHT22;7289;50.706;4.992;2022-07-29T11:06:18;25.10;80.20
14409;DHT22;7289;50.706;4.992;2022-07-29T11:09:17;24.90;80.20
14409;DHT22;7289;50.706;4.992;2022-07-29T11:12:46;25.20;81.30
14409;DHT22;7289;50.706;4.992;2022-07-29T11:15:16;25.50;80.10
14409;DHT22;7289;50.706;4.992;2022-07-29T11:18:06;25.30;81.30
14409;DHT22;7289;50.706;4.992;2022-07-29T11:20:44;25.20;81.10
14409;DHT22;7289;50.706;4.992;2022-07-29T11:23:22;25.50;81.80
14409;DHT22;7289;50.706;4.992;2022-07-29T11:26:17;25.70;80.40
14409;DHT22;7289;50.706;4.992;2022-07-29T11:28:53;25.80;77.10
14409;DHT22;7289;50.706;4.992;2022-07-29T11:31:34;26.00;77.70
14409;DHT22;7289;50.706;4.992;2022-07-29T11:34:20;25.80;78.50
14409;DHT22;7289;50.706;4.992;2022-07-29T11:37:18;25.60;77.00
14409;DHT22;7289;50.706;4.992;2022-07-29T11:40:16;25.80;77.20
14409;DHT22;7289;50.706;4.992;2022-07-29T11:42:50;25.90;77.00
14409;DHT22;7289;50.706;4.992;2022-07-29T11:45:25;26.00;76.90
14409;DHT22;7289;50.706;4.992;2022-07-29T11:48:17;26.20;76.80
14409;DHT22;7289;50.706;4.992;2022-07-29T11:50:59;26.20;74.80
14409;DHT22;7289;50.706;4.992;2022-07-29T11:53:30;25.80;74.40
14409;DHT22;7289;50.706;4.992;2022-07-29T11:56:00;25.90;74.50
14409;DHT22;7289;50.706;4.992;2022-07-29T11:58:30;26.00;75.40
14409;DHT22;7289;50.706;4.992;2022-07-29T12:00:59;26.00;76.30
14409;DHT22;7289;50.706;4.992;2022-07-29T12:03:31;26.00;76.40
14409;DHT22;7289;50.706;4.992;2022-07-29T12:06:10;25.90;74.90
14409;DHT22;7289;50.706;4.992;2022-07-29T12:08:43;26.10;75.40
14409;DHT22;7289;50.706;4.992;2022-07-29T12:11:18;26.60;76.30
14409;DHT22;7289;50.706;4.992;2022-07-29T12:13:49;26.90;72.40
14409;DHT22;7289;50.706;4.992;2022-07-29T12:16:19;26.70;73.00
14409;DHT22;7289;50.706;4.992;2022-07-29T12:18:57;26.80;74.20
14409;DHT22;7289;50.706;4.992;2022-07-29T12:21:26;27.10;72.10
14409;DHT22;7289;50.706;4.992;2022-07-29T12:23:57;27.20;73.50
14409;DHT22;7289;50.706;4.992;2022-07-29T12:26:35;27.20;70.90
14409;DHT22;7289;50.706;4.992;2022-07-29T12:29:06;27.20;71.70
14409;DHT22;7289;50.706;4.992;2022-07-29T12:31:42;27.40;69.60
14409;DHT22;7289;50.706;4.992;2022-07-29T12:34:12;27.40;69.30
14409;DHT22;7289;50.706;4.992;2022-07-29T12:36:42;27.20;69.90
14409;DHT22;7289;50.706;4.992;2022-07-29T12:39:12;27.40;69.30
14409;DHT22;7289;50.706;4.992;2022-07-29T12:41:41;27.80;70.70
14409;DHT22;7289;50.706;4.992;2022-07-29T12:44:10;27.70;70.00
14409;DHT22;7289;50.706;4.992;2022-07-29T12:46:38;27.60;70.20
14409;DHT22;7289;50.706;4.992;2022-07-29T12:49:07;27.30;69.80
14409;DHT22;7289;50.706;4.992;2022-07-29T12:51:38;27.00;69.60
14409;DHT22;7289;50.706;4.992;2022-07-29T12:54:09;26.90;72.00
14409;DHT22;7289;50.706;4.992;2022-07-29T12:56:40;27.40;70.50
14409;DHT22;7289;50.706;4.992;2022-07-29T12:59:12;27.70;69.20
14409;DHT22;7289;50.706;4.992;2022-07-29T13:01:41;27.80;68.10
14409;DHT22;7289;50.706;4.992;2022-07-29T13:04:09;28.10;69.10
14409;DHT22;7289;50.706;4.992;2022-07-29T13:06:40;28.50;68.60
14409;DHT22;7289;50.706;4.992;2022-07-29T13:09:13;28.70;66.60
14409;DHT22;7289;50.706;4.992;2022-07-29T13:11:45;28.50;65.30
14409;DHT22;7289;50.706;4.992;2022-07-29T13:14:30;28.50;65.20
14409;DHT22;7289;50.706;4.992;2022-07-29T13:17:04;28.70;66.40
14409;DHT22;7289;50.706;4.992;2022-07-29T13:19:37;28.70;65.20
14409;DHT22;7289;50.706;4.992;2022-07-29T13:22:07;28.90;67.00
14409;DHT22;7289;50.706;4.992;2022-07-29T13:24:46;29.50;64.50
14409;DHT22;7289;50.706;4.992;2022-07-29T13:27:16;29.60;64.80
14409;DHT22;7289;50.706;4.992;2022-07-29T13:29:46;29.20;64.70
14409;DHT22;7289;50.706;4.992;2022-07-29T13:32:15;28.70;65.00
14409;DHT22;7289;50.706;4.992;2022-07-29T13:34:44;28.50;66.40
14409;DHT22;7289;50.706;4.992;2022-07-29T13:37:12;28.40;65.20
14409;DHT22;7289;50.706;4.992;2022-07-29T13:39:40;28.20;66.00
14409;DHT22;7289;50.706;4.992;2022-07-29T13:42:20;28.10;66.80
14409;DHT22;7289;50.706;4.992;2022-07-29T13:44:48;28.00;66.20
14409;DHT22;7289;50.706;4.992;2022-07-29T13:47:19;27.80;67.50
14409;DHT22;7289;50.706;4.992;2022-07-29T13:49:47;27.80;67.20
14409;DHT22;7289;50.706;4.992;2022-07-29T13:52:16;27.50;64.90
14409;DHT22;7289;50.706;4.992;2022-07-29T13:54:44;27.60;66.10
14409;DHT22;7289;50.706;4.992;2022-07-29T13:57:13;27.70;67.10
14409;DHT22;7289;50.706;4.992;2022-07-29T13:59:42;27.80;65.60
14409;DHT22;7289;50.706;4.992;2022-07-29T14:02:14;28.00;67.30
14409;DHT22;7289;50.706;4.992;2022-07-29T14:04:42;28.00;64.90
14409;DHT22;7289;50.706;4.992;2022-07-29T14:07:11;28.00;66.70
14409;DHT22;7289;50.706;4.992;2022-07-29T14:09:42;28.10;66.80
14409;DHT22;7289;50.706;4.992;2022-07-29T14:12:11;28.20;66.80
14409;DHT22;7289;50.706;4.992;2022-07-29T14:14:39;28.10;67.60
14409;DHT22;7289;50.706;4.992;2022-07-29T14:17:10;28.30;67.10
14409;DHT22;7289;50.706;4.992;2022-07-29T14:19:38;28.60;66.60
14409;DHT22;7289;50.706;4.992;2022-07-29T14:22:08;28.80;62.90
14409;DHT22;7289;50.706;4.992;2022-07-29T14:24:37;28.90;62.50
14409;DHT22;7289;50.706;4.992;2022-07-29T14:27:07;29.20;63.60
14409;DHT22;7289;50.706;4.992;2022-07-29T14:29:36;29.40;63.40
14409;DHT22;7289;50.706;4.992;2022-07-29T14:32:05;29.20;64.40
14409;DHT22;7289;50.706;4.992;2022-07-29T14:34:37;29.60;63.60
14409;DHT22;7289;50.706;4.992;2022-07-29T14:37:06;29.60;61.30
14409;DHT22;7289;50.706;4.992;2022-07-29T14:39:42;29.80;60.90
14409;DHT22;7289;50.706;4.992;2022-07-29T14:42:10;29.80;59.80
14409;DHT22;7289;50.706;4.992;2022-07-29T14:44:40;29.70;60.40
14409;DHT22;7289;50.706;4.992;2022-07-29T14:47:10;29.90;62.90
14409;DHT22;7289;50.706;4.992;2022-07-29T14:49:40;29.80;61.00
14409;DHT22;7289;50.706;4.992;2022-07-29T14:52:08;29.70;62.20
14409;DHT22;7289;50.706;4.992;2022-07-29T14:54:37;29.90;60.30
14409;DHT22;7289;50.706;4.992;2022-07-29T14:57:06;29.70;60.10
14409;DHT22;7289;50.706;4.992;2022-07-29T14:59:34;29.50;61.50
14409;DHT22;7289;50.706;4.992;2022-07-29T15:02:03;29.00;60.60
14409;DHT22;7289;50.706;4.992;2022-07-29T15:04:31;28.60;62.50
14409;DHT22;7289;50.706;4.992;2022-07-29T15:07:01;28.10;61.60
14409;DHT22;7289;50.706;4.992;2022-07-29T15:09:30;28.00;62.40
14409;DHT22;7289;50.706;4.992;2022-07-29T15:12:07;28.20;62.10
14409;DHT22;7289;50.706;4.992;2022-07-29T15:14:37;28.50;61.40
14409;DHT22;7289;50.706;4.992;2022-07-29T15:17:05;28.50;60.50
14409;DHT22;7289;50.706;4.992;2022-07-29T15:19:34;28.50;61.20
14409;DHT22;7289;50.706;4.992;2022-07-29T15:22:04;28.40;61.60
14409;DHT22;7289;50.706;4.992;2022-07-29T15:24:33;28.40;62.30
14409;DHT22;7289;50.706;4.992;2022-07-29T15:27:01;28.60;63.00
14409;DHT22;7289;50.706;4.992;2022-07-29T15:29:29;28.70;61.00
14409;DHT22;7289;50.706;4.992;2022-07-29T15:31:58;28.50;62.10
14409;DHT22;7289;50.706;4.992;2022-07-29T15:34:27;28.50;61.10
14409;DHT22;7289;50.706;4.992;2022-07-29T15:36:56;28.20;61.10
14409;DHT22;7289;50.706;4.992;2022-07-29T15:39:26;28.00;61.80
14409;DHT22;7289;50.706;4.992;2022-07-29T15:41:54;28.10;63.00
14409;DHT22;7289;50.706;4.992;2022-07-29T15:44:23;28.20;60.40
14409;DHT22;7289;50.706;4.992;2022-07-29T15:46:51;28.10;60.30
14409;DHT22;7289;50.706;4.992;2022-07-29T15:49:34;28.10;60.90
14409;DHT22;7289;50.706;4.992;2022-07-29T15:52:16;28.20;61.40
14409;DHT22;7289;50.706;4.992;2022-07-29T15:54:55;28.00;62.10
14409;DHT22;7289;50.706;4.992;2022-07-29T15:57:24;27.90;61.00
14409;DHT22;7289;50.706;4.992;2022-07-29T15:59:52;27.90;62.00
14409;DHT22;7289;50.706;4.992;2022-07-29T16:02:20;27.70;61.10
14409;DHT22;7289;50.706;4.992;2022-07-29T16:04:49;27.70;61.90
14409;DHT22;7289;50.706;4.992;2022-07-29T16:07:17;27.60;62.70
14409;DHT22;7289;50.706;4.992;2022-07-29T16:09:46;27.60;62.60
14409;DHT22;7289;50.706;4.992;2022-07-29T16:12:20;27.60;62.00
14409;DHT22;7289;50.706;4.992;2022-07-29T16:14:49;27.60;61.80